createdAt,value
2018-09-03T00:00:59.170Z,79.05
2018-09-03T00:03:27.834Z,79.54
2018-09-03T00:05:56.377Z,80.23
2018-09-03T00:08:24.964Z,79.89
2018-09-03T00:10:53.434Z,80.28
2018-09-03T00:13:22.243Z,79.73
2018-09-03T00:15:50.732Z,80.50
2018-09-03T00:18:19.468Z,81.18
2018-09-03T00:20:47.930Z,81.06
2018-09-03T00:23:16.456Z,81.30
2018-09-03T00:25:44.936Z,80.70
2018-09-03T00:28:13.629Z,81.01
2018-09-03T00:30:42.310Z,82.19
2018-09-03T00:33:16.114Z,81.47
2018-09-03T00:35:49.905Z,81.01
2018-09-03T00:38:23.638Z,81.17
2018-09-03T00:40:57.502Z,81.44
2018-09-03T00:43:31.322Z,81.42
2018-09-03T00:46:05.070Z,81.43
2018-09-03T00:48:33.544Z,81.88
2018-09-03T00:51:02.222Z,81.92
2018-09-03T00:53:30.745Z,81.67
2018-09-03T00:55:59.415Z,81.69
2018-09-03T00:58:27.954Z,82.12
2018-09-03T01:00:56.537Z,82.33
2018-09-03T01:03:25.218Z,82.01
2018-09-03T01:05:53.775Z,81.81
2018-09-03T01:08:22.550Z,81.67
2018-09-03T01:10:51.135Z,81.33
2018-09-03T01:13:20.743Z,81.72
2018-09-03T01:15:49.195Z,81.63
2018-09-03T01:18:17.799Z,81.69
2018-09-03T01:20:48.210Z,81.87
2018-09-03T01:23:16.862Z,81.61
2018-09-03T01:25:45.397Z,81.81
2018-09-03T01:28:13.904Z,81.96
2018-09-03T01:30:42.469Z,81.79
2018-09-03T01:33:11.041Z,81.94
2018-09-03T01:35:39.702Z,81.95
2018-09-03T01:38:08.222Z,82.10
2018-09-03T01:40:36.737Z,82.77
2018-09-03T01:43:05.282Z,82.38
2018-09-03T01:45:33.793Z,82.46
2018-09-03T01:48:02.741Z,82.36
2018-09-03T01:50:31.332Z,82.49
2018-09-03T01:53:00.122Z,82.63
2018-09-03T01:55:28.614Z,82.41
2018-09-03T01:57:57.486Z,82.34
2018-09-03T02:00:25.966Z,82.88
2018-09-03T02:02:54.617Z,82.84
2018-09-03T02:05:23.139Z,82.62
2018-09-03T02:07:51.618Z,82.85
2018-09-03T02:10:20.210Z,82.89
2018-09-03T02:12:48.694Z,82.97
2018-09-03T02:15:17.409Z,82.87
2018-09-03T02:17:45.932Z,82.96
2018-09-03T02:20:14.555Z,83.02
2018-09-03T02:22:43.210Z,83.18
2018-09-03T02:25:11.801Z,83.20
2018-09-03T02:27:40.422Z,83.43
2018-09-03T02:30:08.979Z,83.47
2018-09-03T02:32:37.747Z,84.33
2018-09-03T02:35:06.387Z,84.02
2018-09-03T02:37:35.050Z,84.46
2018-09-03T02:40:03.636Z,84.15
2018-09-03T02:42:32.475Z,83.67
2018-09-03T02:45:00.970Z,84.09
2018-09-03T02:47:29.493Z,84.66
2018-09-03T02:49:57.982Z,85.35
2018-09-03T02:52:26.449Z,84.68
2018-09-03T02:54:55.503Z,84.57
2018-09-03T02:57:24.000Z,84.56
2018-09-03T02:59:52.671Z,86.07
2018-09-03T03:02:21.193Z,87.96
2018-09-03T03:04:49.722Z,92.06
2018-09-03T03:07:18.250Z,92.26
2018-09-03T03:09:46.739Z,93.08
2018-09-03T03:12:19.606Z,92.33
2018-09-03T03:14:48.088Z,92.42
2018-09-03T03:17:16.682Z,91.90
2018-09-03T03:19:45.178Z,91.76
2018-09-03T03:22:13.873Z,91.04
2018-09-03T03:24:42.349Z,89.83
2018-09-03T03:27:11.110Z,89.27
2018-09-03T03:29:39.570Z,88.95
2018-09-03T03:32:08.070Z,88.49
2018-09-03T03:34:36.606Z,88.26
2018-09-03T03:37:05.187Z,87.97
2018-09-03T03:39:33.909Z,87.94
2018-09-03T03:42:02.572Z,87.53
2018-09-03T03:44:31.402Z,87.50
2018-09-03T03:47:00.048Z,88.42
2018-09-03T03:49:28.774Z,88.43
2018-09-03T03:51:57.250Z,88.48
2018-09-03T03:54:25.943Z,88.65
2018-09-03T03:56:54.423Z,89.01
2018-09-03T03:59:23.032Z,88.75
2018-09-03T04:01:51.746Z,88.60
2018-09-03T04:04:20.210Z,89.09
2018-09-03T04:06:48.821Z,91.25
2018-09-03T04:09:17.282Z,92.55
2018-09-03T04:11:45.977Z,92.19
2018-09-03T04:14:14.441Z,93.47
2018-09-03T04:16:43.061Z,93.90
2018-09-03T04:19:11.714Z,93.90
2018-09-03T04:21:40.219Z,94.31
2018-09-03T04:24:09.074Z,94.32
2018-09-03T04:26:37.678Z,92.63
2018-09-03T04:29:06.366Z,91.99
2018-09-03T04:31:34.945Z,91.06
2018-09-03T04:34:03.484Z,90.79
2018-09-03T04:36:32.187Z,90.44
2018-09-03T04:39:00.687Z,90.09
2018-09-03T04:41:29.246Z,90.16
2018-09-03T04:43:57.786Z,90.19
2018-09-03T04:46:26.502Z,89.81
2018-09-03T04:48:55.039Z,90.03
2018-09-03T04:51:23.678Z,91.31
2018-09-03T04:53:52.377Z,91.72
2018-09-03T04:56:20.938Z,91.90
2018-09-03T04:58:49.498Z,92.95
2018-09-03T05:01:18.257Z,92.09
2018-09-03T05:03:46.970Z,91.69
2018-09-03T05:06:15.520Z,91.48
2018-09-03T05:08:44.419Z,91.17
2018-09-03T05:11:12.950Z,90.84
2018-09-03T05:13:41.516Z,90.72
2018-09-03T05:16:10.155Z,90.51
2018-09-03T05:18:38.737Z,90.31
2018-09-03T05:21:07.366Z,90.73
2018-09-03T05:23:35.967Z,90.74
2018-09-03T05:26:04.815Z,91.04
2018-09-03T05:28:33.376Z,91.07
2018-09-03T05:31:01.967Z,91.15
2018-09-03T05:33:30.630Z,91.41
2018-09-03T05:35:59.191Z,91.81
2018-09-03T05:38:27.891Z,91.51
2018-09-03T05:40:56.367Z,91.44
2018-09-03T05:43:25.286Z,91.37
2018-09-03T05:45:53.794Z,91.84
2018-09-03T05:48:27.782Z,92.91
2018-09-03T05:50:56.373Z,92.35
2018-09-03T05:53:24.895Z,91.88
2018-09-03T05:55:53.548Z,93.49
2018-09-03T05:58:22.250Z,92.89
2018-09-03T06:00:50.862Z,94.11
2018-09-03T06:03:19.568Z,93.52
2018-09-03T06:05:48.365Z,93.39
2018-09-03T06:08:17.786Z,93.61
2018-09-03T06:10:46.371Z,93.37
2018-09-03T06:13:14.994Z,92.29
2018-09-03T06:15:43.726Z,92.36
2018-09-03T06:18:12.846Z,91.77
2018-09-03T06:20:41.812Z,91.69
2018-09-03T06:23:17.253Z,90.76
2018-09-03T06:25:45.738Z,90.83
2018-09-03T06:28:14.478Z,89.98
2018-09-03T06:30:43.081Z,90.10
2018-09-03T06:33:11.776Z,89.60
2018-09-03T06:35:40.300Z,88.91
2018-09-03T06:38:09.338Z,89.00
2018-09-03T06:40:38.022Z,88.41
2018-09-03T06:43:06.853Z,87.77
2018-09-03T06:45:35.389Z,87.29
2018-09-03T06:48:04.311Z,86.07
2018-09-03T06:50:34.034Z,86.22
2018-09-03T06:53:02.699Z,86.01
2018-09-03T06:55:31.646Z,85.78
2018-09-03T06:58:00.280Z,84.99
2018-09-03T07:00:28.954Z,85.23
2018-09-03T07:02:57.478Z,84.55
2018-09-03T07:05:26.082Z,84.28
2018-09-03T07:07:54.594Z,84.31
2018-09-03T07:10:23.226Z,83.17
2018-09-03T07:12:51.926Z,83.38
2018-09-03T07:15:20.462Z,82.89
2018-09-03T07:17:49.210Z,82.82
2018-09-03T07:20:17.778Z,82.26
2018-09-03T07:22:46.343Z,81.43
2018-09-03T07:25:14.806Z,81.67
2018-09-03T07:27:43.548Z,81.55
2018-09-03T07:30:12.247Z,81.07
2018-09-03T07:32:40.850Z,80.64
2018-09-03T07:35:09.544Z,80.62
2018-09-03T07:37:38.031Z,80.04
2018-09-03T07:40:07.375Z,79.97
2018-09-03T07:42:35.861Z,79.71
2018-09-03T07:45:04.663Z,79.85
2018-09-03T07:47:33.319Z,79.69
2018-09-03T07:50:01.922Z,79.48
2018-09-03T07:52:30.423Z,79.52
2018-09-03T07:54:58.914Z,79.69
2018-09-03T07:57:27.944Z,79.22
2018-09-03T07:59:56.539Z,79.68
2018-09-03T08:02:25.180Z,79.47
2018-09-03T08:04:53.670Z,78.45
2018-09-03T08:07:22.268Z,78.63
2018-09-03T08:09:50.958Z,77.83
2018-09-03T08:12:19.442Z,77.50
2018-09-03T08:14:48.114Z,77.17
2018-09-03T08:17:16.576Z,76.28
2018-09-03T08:19:45.348Z,76.39
2018-09-03T08:22:13.822Z,76.25
2018-09-03T08:24:42.412Z,76.40
2018-09-03T08:27:10.910Z,75.99
2018-09-03T08:29:39.506Z,75.77
2018-09-03T08:32:08.334Z,75.20
2018-09-03T08:34:36.856Z,75.54
2018-09-03T08:37:05.763Z,75.60
2018-09-03T08:39:34.223Z,74.92
2018-09-03T08:42:02.786Z,74.75
2018-09-03T08:44:31.258Z,74.78
2018-09-03T08:46:59.820Z,74.38
2018-09-03T08:49:28.494Z,74.40
2018-09-03T08:51:57.110Z,74.36
2018-09-03T08:54:25.899Z,73.79
2018-09-03T08:56:54.549Z,73.26
2018-09-03T08:59:23.719Z,72.69
2018-09-03T09:01:52.310Z,72.83
2018-09-03T09:04:21.024Z,70.81
2018-09-03T09:06:49.602Z,69.48
2018-09-03T09:09:18.186Z,71.25
2018-09-03T09:11:46.976Z,70.24
2018-09-03T09:14:15.407Z,69.84
2018-09-03T09:16:44.198Z,69.77
2018-09-03T09:19:12.658Z,70.45
2018-09-03T09:21:41.155Z,68.88
2018-09-03T09:24:09.682Z,68.85
2018-09-03T09:26:38.145Z,67.33
2018-09-03T09:29:06.829Z,68.30
2018-09-03T09:31:35.290Z,65.87
2018-09-03T09:34:04.151Z,67.46
2018-09-03T09:36:32.634Z,66.67
2018-09-03T09:39:01.235Z,66.13
2018-09-03T09:41:33.226Z,63.71
2018-09-03T09:44:03.130Z,65.16
2018-09-03T09:46:31.613Z,64.28
2018-09-03T09:49:00.312Z,62.34
2018-09-03T09:51:29.206Z,64.18
2018-09-03T09:53:58.498Z,62.47
2018-09-03T09:56:27.066Z,62.16
2018-09-03T09:58:55.714Z,58.17
2018-09-03T10:01:29.422Z,60.97
2018-09-03T10:03:58.130Z,59.18
2018-09-03T10:06:26.628Z,59.31
2018-09-03T10:08:55.468Z,59.80
2018-09-03T10:11:24.023Z,60.62
2018-09-03T10:13:52.677Z,60.20
2018-09-03T10:16:21.266Z,59.99
2018-09-03T10:18:49.788Z,59.09
2018-09-03T10:21:18.568Z,58.08
2018-09-03T10:23:47.146Z,58.09
2018-09-03T10:26:16.055Z,57.41
2018-09-03T10:28:44.654Z,57.89
2018-09-03T10:31:13.307Z,55.83
2018-09-03T10:33:42.059Z,56.63
2018-09-03T10:36:10.566Z,57.10
2018-09-03T10:38:39.086Z,55.85
2018-09-03T10:41:07.631Z,56.18
2018-09-03T10:43:36.518Z,57.21
2018-09-03T10:46:05.143Z,56.80
2018-09-03T10:48:33.999Z,56.43
2018-09-03T10:51:02.554Z,54.04
2018-09-03T10:53:31.182Z,52.54
2018-09-03T10:55:59.669Z,53.89
2018-09-03T10:58:28.150Z,54.71
2018-09-03T11:00:56.794Z,52.94
2018-09-03T11:03:25.274Z,52.41
2018-09-03T11:05:53.959Z,53.06
2018-09-03T11:08:22.458Z,50.57
2018-09-03T11:10:51.126Z,50.03
2018-09-03T11:13:19.690Z,52.14
2018-09-03T11:15:48.182Z,50.76
2018-09-03T11:18:16.843Z,50.17
2018-09-03T11:20:45.326Z,51.04
2018-09-03T11:23:14.193Z,50.37
2018-09-03T11:25:43.250Z,50.35
2018-09-03T11:28:12.625Z,49.65
2018-09-03T11:30:41.200Z,49.02
2018-09-03T11:33:09.774Z,46.43
2018-09-03T11:35:38.261Z,48.94
2018-09-03T11:38:06.837Z,46.80
2018-09-03T11:40:35.545Z,47.44
2018-09-03T11:43:04.126Z,47.03
2018-09-03T11:45:33.007Z,46.25
2018-09-03T11:48:01.471Z,47.73
2018-09-03T11:50:30.011Z,45.96
2018-09-03T11:52:58.538Z,43.89
2018-09-03T11:55:27.045Z,45.50
2018-09-03T11:57:55.682Z,44.79
2018-09-03T12:00:29.908Z,44.47
2018-09-03T12:02:59.162Z,46.22
2018-09-03T12:05:28.642Z,46.05
2018-09-03T12:07:57.191Z,45.51
2018-09-03T12:10:26.265Z,44.72
2018-09-03T12:12:54.798Z,45.60
2018-09-03T12:15:28.805Z,45.77
2018-09-03T12:17:57.372Z,51.38
2018-09-03T12:20:26.414Z,51.40
2018-09-03T12:22:54.951Z,51.94
2018-09-03T12:25:23.950Z,52.51
2018-09-03T12:27:52.415Z,53.66
2018-09-03T12:30:21.294Z,54.29
2018-09-03T12:32:49.837Z,54.70
2018-09-03T12:35:18.637Z,54.94
2018-09-03T12:37:47.206Z,55.48
2018-09-03T12:40:15.744Z,55.60
2018-09-03T12:42:44.250Z,55.33
2018-09-03T12:45:12.858Z,55.49
2018-09-03T12:47:41.611Z,55.31
2018-09-03T12:50:10.255Z,54.42
2018-09-03T12:52:38.863Z,56.04
2018-09-03T12:55:07.695Z,57.26
2018-09-03T12:57:36.517Z,57.95
2018-09-03T13:00:05.707Z,57.86
2018-09-03T13:02:39.418Z,58.37
2018-09-03T13:05:02.245Z,57.55
2018-09-03T13:07:30.742Z,58.11
2018-09-03T13:09:59.665Z,57.48
2018-09-03T13:12:28.140Z,58.04
2018-09-03T13:14:56.953Z,57.85
2018-09-03T13:17:25.513Z,57.04
2018-09-03T13:19:54.061Z,57.91
2018-09-03T13:22:22.624Z,58.41
2018-09-03T13:24:51.166Z,58.56
2018-09-03T13:27:20.094Z,57.48
2018-09-03T13:29:48.546Z,57.04
2018-09-03T13:32:17.247Z,57.46
2018-09-03T13:34:45.747Z,57.90
2018-09-03T13:37:14.360Z,57.91
2018-09-03T13:39:42.885Z,57.47
2018-09-03T13:42:11.493Z,57.34
2018-09-03T13:44:40.221Z,57.44
2018-09-03T13:47:08.939Z,58.75
2018-09-03T13:49:37.712Z,58.06
2018-09-03T13:52:06.438Z,58.52
2018-09-03T13:54:35.074Z,57.53
2018-09-03T13:57:03.574Z,58.75
2018-09-03T13:59:32.038Z,57.83
2018-09-03T14:02:01.238Z,58.38
2018-09-03T14:04:29.712Z,58.69
2018-09-03T14:06:58.693Z,58.93
2018-09-03T14:09:27.247Z,57.59
2018-09-03T14:11:56.127Z,57.54
2018-09-03T14:14:24.674Z,58.77
2018-09-03T14:16:53.487Z,58.94
2018-09-03T14:19:22.070Z,59.38
2018-09-03T14:21:50.566Z,59.27
2018-09-03T14:24:19.654Z,59.02
2018-09-03T14:26:48.476Z,59.24
2018-09-03T14:29:17.505Z,60.40
2018-09-03T14:31:45.990Z,59.68
2018-09-03T14:34:14.476Z,59.88
2018-09-03T14:36:43.036Z,59.43
2018-09-03T14:39:12.398Z,59.33
2018-09-03T14:41:41.036Z,59.34
2018-09-03T14:44:10.158Z,59.48
2018-09-03T14:46:38.900Z,59.39
2018-09-03T14:49:07.720Z,59.97
2018-09-03T14:51:36.879Z,60.27
2018-09-03T14:54:05.434Z,59.88
2018-09-03T14:56:34.410Z,59.29
2018-09-03T14:59:02.906Z,59.74
2018-09-03T15:01:31.751Z,58.95
2018-09-03T15:04:00.360Z,59.75
2018-09-03T15:06:28.870Z,59.28
2018-09-03T15:08:57.358Z,59.43
2018-09-03T15:11:25.848Z,59.35
2018-09-03T15:13:59.252Z,59.42
2018-09-03T15:16:30.926Z,59.46
2018-09-03T15:19:00.458Z,59.39
2018-09-03T15:21:29.193Z,59.79
2018-09-03T15:23:57.783Z,59.98
2018-09-03T15:26:26.890Z,60.13
2018-09-03T15:28:55.491Z,60.96
2018-09-03T15:31:24.247Z,60.52
2018-09-03T15:33:53.036Z,60.33
2018-09-03T15:36:21.684Z,59.62
2018-09-03T15:38:50.246Z,59.82
2018-09-03T15:41:18.798Z,59.71
2018-09-03T15:43:47.842Z,60.11
2018-09-03T15:46:16.316Z,60.21
2018-09-03T15:48:46.050Z,59.36
2018-09-03T15:51:14.649Z,60.36
2018-09-03T15:53:43.482Z,60.78
2018-09-03T15:56:12.047Z,60.80
2018-09-03T15:58:40.598Z,61.00
2018-09-03T16:01:09.298Z,61.63
2018-09-03T16:03:37.880Z,61.71
2018-09-03T16:06:06.711Z,61.27
2018-09-03T16:08:35.242Z,60.93
2018-09-03T16:11:03.915Z,61.46
2018-09-03T16:13:32.578Z,61.68
2018-09-03T16:16:01.133Z,62.24
2018-09-03T16:18:29.779Z,61.13
2018-09-03T16:20:58.324Z,60.71
2018-09-03T16:23:28.129Z,60.71
2018-09-03T16:25:56.642Z,60.32
2018-09-03T16:28:25.627Z,59.92
2018-09-03T16:30:54.090Z,60.31
2018-09-03T16:33:22.921Z,60.36
2018-09-03T16:35:51.532Z,59.79
2018-09-03T16:38:20.002Z,60.15
2018-09-03T16:40:48.526Z,60.52
2018-09-03T16:43:17.010Z,60.57
2018-09-03T16:45:45.934Z,61.21
2018-09-03T16:48:14.602Z,61.61
2018-09-03T16:50:43.666Z,61.79
2018-09-03T16:53:12.231Z,61.63
2018-09-03T16:55:41.588Z,62.32
2018-09-03T16:58:10.234Z,62.56
2018-09-03T17:00:38.789Z,62.18
2018-09-03T17:03:07.444Z,62.52
2018-09-03T17:05:36.170Z,62.99
2018-09-03T17:08:05.063Z,63.84
2018-09-03T17:10:33.450Z,64.04
2018-09-03T17:13:02.278Z,63.82
2018-09-03T17:15:30.914Z,64.27
2018-09-03T17:17:59.612Z,64.64
2018-09-03T17:20:29.306Z,64.37
2018-09-03T17:22:57.894Z,65.22
2018-09-03T17:25:26.433Z,65.56
2018-09-03T17:27:54.930Z,66.00
2018-09-03T17:30:23.595Z,66.19
2018-09-03T17:32:52.094Z,66.17
2018-09-03T17:35:20.708Z,66.30
2018-09-03T17:37:49.293Z,66.36
2018-09-03T17:40:18.062Z,66.97
2018-09-03T17:42:46.717Z,66.71
2018-09-03T17:45:15.195Z,67.58
2018-09-03T17:47:45.323Z,67.46
2018-09-03T17:50:13.902Z,68.10
2018-09-03T17:52:42.381Z,67.50
2018-09-03T17:55:11.681Z,67.99
2018-09-03T17:57:40.287Z,68.32
2018-09-03T18:00:08.834Z,68.32
2018-09-03T18:02:37.369Z,69.16
2018-09-03T18:05:06.186Z,69.51
2018-09-03T18:07:34.718Z,69.75
2018-09-03T18:10:03.321Z,69.74
2018-09-03T18:12:31.902Z,70.77
2018-09-03T18:15:00.898Z,70.61
2018-09-03T18:17:29.410Z,70.96
2018-09-03T18:19:58.058Z,71.65
2018-09-03T18:22:26.686Z,71.78
2018-09-03T18:24:55.161Z,71.62
2018-09-03T18:27:23.853Z,72.31
2018-09-03T18:29:52.333Z,72.23
2018-09-03T18:32:24.724Z,72.14
2018-09-03T18:34:53.272Z,72.33
2018-09-03T18:37:22.605Z,72.37
2018-09-03T18:39:51.211Z,72.90
2018-09-03T18:42:20.019Z,72.59
2018-09-03T18:44:48.670Z,72.86
2018-09-03T18:47:17.660Z,73.24
2018-09-03T18:49:46.151Z,72.98
2018-09-03T18:52:15.047Z,73.95
2018-09-03T18:54:43.631Z,73.79
2018-09-03T18:57:12.187Z,74.17
2018-09-03T18:59:40.754Z,74.08
2018-09-03T19:02:09.238Z,74.14
2018-09-03T19:04:37.978Z,74.23
2018-09-03T19:07:06.629Z,73.91
2018-09-03T19:09:35.399Z,74.70
2018-09-03T19:12:03.934Z,75.03
2018-09-03T19:14:33.643Z,74.88
2018-09-03T19:17:02.206Z,75.58
2018-09-03T19:19:31.038Z,75.50
2018-09-03T19:21:59.955Z,75.85
2018-09-03T19:24:30.292Z,75.93
2018-09-03T19:26:58.887Z,76.28
2018-09-03T19:29:27.542Z,76.42
2018-09-03T19:31:56.348Z,76.48
2018-09-03T19:34:24.950Z,76.58
2018-09-03T19:36:54.263Z,76.54
2018-09-03T19:39:22.913Z,77.83
2018-09-03T19:41:52.743Z,76.89
2018-09-03T19:44:21.559Z,77.31
2018-09-03T19:46:50.358Z,77.13
2018-09-03T19:49:18.918Z,77.51
2018-09-03T19:51:47.665Z,77.17
2018-09-03T19:54:16.358Z,77.65
2018-09-03T19:56:45.086Z,77.52
2018-09-03T19:59:13.746Z,77.96
2018-09-03T20:01:42.359Z,78.29
2018-09-03T20:04:11.117Z,78.23
2018-09-03T20:06:39.782Z,78.59
2018-09-03T20:09:08.485Z,78.23
2018-09-03T20:11:37.971Z,77.96
2018-09-03T20:14:07.190Z,78.75
2018-09-03T20:16:35.994Z,78.10
2018-09-03T20:19:04.610Z,78.68
2018-09-03T20:21:33.138Z,79.05
2018-09-03T20:24:01.705Z,79.40
2018-09-03T20:26:30.441Z,79.49
2018-09-03T20:28:58.910Z,80.74
2018-09-03T20:31:28.376Z,79.42
2018-09-03T20:33:56.987Z,79.58
2018-09-03T20:36:26.907Z,79.58
2018-09-03T20:38:55.408Z,79.74
2018-09-03T20:41:24.062Z,79.92
2018-09-03T20:43:52.538Z,79.56
2018-09-03T20:46:21.055Z,79.36
2018-09-03T20:48:49.914Z,79.62
2018-09-03T20:51:18.574Z,79.85
2018-09-03T20:53:47.190Z,80.15
2018-09-03T20:56:15.847Z,80.33
2018-09-03T20:58:44.583Z,80.04
2018-09-03T21:01:13.158Z,79.71
2018-09-03T21:03:41.746Z,80.54
2018-09-03T21:06:10.353Z,80.66
2018-09-03T21:08:38.870Z,80.68
2018-09-03T21:11:07.749Z,80.78
2018-09-03T21:13:36.323Z,80.96
2018-09-03T21:16:05.266Z,80.69
2018-09-03T21:18:33.826Z,81.27
2018-09-03T21:21:02.318Z,80.73
2018-09-03T21:23:30.970Z,81.23
2018-09-03T21:25:59.655Z,80.84
2018-09-03T21:28:28.337Z,81.54
2018-09-03T21:30:56.816Z,81.97
2018-09-03T21:33:25.426Z,81.34
2018-09-03T21:35:53.918Z,81.90
2018-09-03T21:38:22.513Z,81.81
2018-09-03T21:40:51.090Z,82.74
2018-09-03T21:43:19.738Z,82.71
2018-09-03T21:45:48.266Z,82.33
2018-09-03T21:48:16.746Z,82.24
2018-09-03T21:50:45.567Z,82.89
2018-09-03T21:53:14.077Z,82.96
2018-09-03T21:55:43.103Z,83.35
2018-09-03T21:58:11.848Z,83.68
2018-09-03T22:00:40.553Z,82.75
2018-09-03T22:03:09.014Z,83.74
2018-09-03T22:05:37.542Z,83.76
2018-09-03T22:08:06.149Z,83.21
2018-09-03T22:10:34.694Z,83.49
2018-09-03T22:13:03.448Z,83.09
2018-09-03T22:15:31.930Z,83.06
2018-09-03T22:18:00.638Z,83.25
2018-09-03T22:20:29.135Z,83.33
2018-09-03T22:22:57.707Z,82.99
2018-09-03T22:25:26.274Z,83.67
2018-09-03T22:27:54.754Z,83.34
2018-09-03T22:30:23.425Z,84.13
2018-09-03T22:32:52.254Z,84.66
2018-09-03T22:35:20.938Z,84.37
2018-09-03T22:37:49.444Z,84.29
2018-09-03T22:40:18.214Z,84.01
2018-09-03T22:42:46.853Z,83.78
2018-09-03T22:45:15.516Z,84.11
2018-09-03T22:47:44.836Z,83.79
2018-09-03T22:50:13.402Z,84.10
2018-09-03T22:52:42.032Z,83.98
2018-09-03T22:55:10.598Z,83.88
2018-09-03T22:57:39.412Z,83.84
2018-09-03T23:00:08.000Z,84.41
2018-09-03T23:02:40.939Z,83.98
2018-09-03T23:05:09.466Z,83.86
2018-09-03T23:07:38.456Z,84.05
2018-09-03T23:10:07.554Z,83.99
2018-09-03T23:12:36.367Z,84.44
2018-09-03T23:15:05.186Z,84.34
2018-09-03T23:17:34.170Z,84.78
2018-09-03T23:20:02.646Z,84.97
2018-09-03T23:22:31.434Z,85.18
2018-09-03T23:24:59.902Z,86.11
2018-09-03T23:27:28.673Z,85.80
2018-09-03T23:29:57.226Z,85.54
2018-09-03T23:32:25.883Z,85.53
2018-09-03T23:34:54.774Z,85.32
2018-09-03T23:37:23.290Z,85.61
2018-09-03T23:39:52.052Z,86.36
2018-09-03T23:42:20.601Z,87.00
2018-09-03T23:44:49.704Z,85.75
2018-09-03T23:47:18.318Z,85.46
2018-09-03T23:49:46.992Z,85.14
2018-09-03T23:52:15.691Z,85.13
2018-09-03T23:54:44.189Z,85.14
2018-09-03T23:57:13.114Z,85.81
2018-09-03T23:59:41.680Z,85.81
